createdAt,value
2022-09-27T00:00:42.550Z,90.89
2022-09-27T00:05:42.491Z,90.48
2022-09-27T00:10:42.422Z,89.47
2022-09-27T00:15:42.471Z,89.36
2022-09-27T00:20:42.295Z,89.06
2022-09-27T00:25:42.235Z,88.85
2022-09-27T00:30:42.284Z,88.34
2022-09-27T00:35:42.125Z,88.61
2022-09-27T00:40:42.092Z,88.75
2022-09-27T00:45:41.987Z,88.71
2022-09-27T00:50:41.916Z,88.55
2022-09-27T00:55:41.847Z,88.61
2022-09-27T01:00:41.801Z,88.81
2022-09-27T01:05:41.731Z,89.42
2022-09-27T01:10:41.649Z,90.14
2022-09-27T01:15:41.656Z,90.44
2022-09-27T01:20:41.544Z,91.05
2022-09-27T01:25:41.488Z,91.16
2022-09-27T01:30:41.478Z,91.05
2022-09-27T01:35:41.359Z,91.50
2022-09-27T01:40:41.366Z,92.22
2022-09-27T01:45:41.264Z,92.72
2022-09-27T01:50:42.120Z,92.72
2022-09-27T01:55:41.091Z,92.93
2022-09-27T02:00:41.040Z,93.85
2022-09-27T02:05:41.003Z,94.50
2022-09-27T02:10:40.913Z,94.71
2022-09-27T02:15:40.952Z,94.81
2022-09-27T02:20:40.774Z,95.32
2022-09-27T02:25:40.726Z,95.83
2022-09-27T02:30:40.715Z,96.54
2022-09-27T02:35:40.616Z,97.71
2022-09-27T02:40:40.606Z,98.73
2022-09-27T02:45:40.520Z,98.93
2022-09-27T02:50:40.409Z,99.29
2022-09-27T02:55:40.375Z,99.39
2022-09-27T03:00:40.306Z,99.99
2022-09-27T03:05:40.236Z,99.99
2022-09-27T03:10:40.217Z,99.54
2022-09-27T03:15:40.147Z,98.57
2022-09-27T03:20:40.064Z,98.88
2022-09-27T03:25:40.008Z,99.99
2022-09-27T03:30:39.990Z,99.95
2022-09-27T03:35:39.889Z,99.13
2022-09-27T03:40:39.801Z,99.33
2022-09-27T03:45:39.769Z,99.23
2022-09-27T03:50:39.670Z,99.64
2022-09-27T03:55:39.642Z,99.84
2022-09-27T04:00:39.544Z,99.95
2022-09-27T04:05:39.511Z,99.58
2022-09-27T04:10:39.435Z,99.68
2022-09-27T04:15:39.460Z,99.38
2022-09-27T04:20:39.302Z,99.68
2022-09-27T04:25:39.232Z,99.89
2022-09-27T04:30:39.274Z,99.99
2022-09-27T04:35:39.104Z,99.99
2022-09-27T04:40:39.131Z,99.99
2022-09-27T04:45:39.005Z,99.99
2022-09-27T04:50:38.916Z,99.99
2022-09-27T04:55:38.865Z,99.99
2022-09-27T05:00:39.746Z,99.99
2022-09-27T05:05:38.796Z,99.99
2022-09-27T05:10:38.675Z,99.99
2022-09-27T05:15:38.628Z,99.99
2022-09-27T05:20:38.537Z,99.99
2022-09-27T05:25:38.487Z,99.99
2022-09-27T05:30:38.442Z,99.99
2022-09-27T05:35:42.055Z,99.99
2022-09-27T05:40:41.747Z,99.99
2022-09-27T05:45:38.367Z,99.99
2022-09-27T05:50:38.204Z,99.99
2022-09-27T05:55:38.159Z,99.99
2022-09-27T06:00:38.040Z,99.99
2022-09-27T06:05:37.979Z,99.99
2022-09-27T06:10:37.919Z,99.99
2022-09-27T06:15:37.963Z,99.99
2022-09-27T06:20:37.791Z,99.99
2022-09-27T06:25:37.764Z,99.99
2022-09-27T06:30:37.696Z,99.99
2022-09-27T06:35:37.643Z,99.99
2022-09-27T06:40:37.614Z,99.99
2022-09-27T06:45:37.513Z,99.99
2022-09-27T06:50:37.414Z,99.99
2022-09-27T06:55:37.368Z,99.99
2022-09-27T07:00:37.283Z,99.99
2022-09-27T07:05:37.242Z,99.99
2022-09-27T07:10:37.162Z,99.68
2022-09-27T07:15:37.204Z,98.05
2022-09-27T07:20:37.057Z,96.92
2022-09-27T07:25:36.975Z,97.39
2022-09-27T07:30:37.322Z,97.24
2022-09-27T07:35:36.874Z,96.38
2022-09-27T07:40:36.811Z,94.45
2022-09-27T07:45:36.815Z,92.71
2022-09-27T07:50:36.677Z,93.02
2022-09-27T07:55:36.611Z,93.02
2022-09-27T08:00:36.545Z,91.59
2022-09-27T08:05:36.509Z,92.30
2022-09-27T08:10:36.418Z,90.36
2022-09-27T08:15:36.358Z,91.53
2022-09-27T08:20:36.302Z,92.76
2022-09-27T08:25:36.269Z,93.06
2022-09-27T08:30:36.189Z,93.77
2022-09-27T08:35:36.105Z,92.80
2022-09-27T08:40:36.060Z,92.45
2022-09-27T08:45:36.021Z,92.20
2022-09-27T08:50:39.776Z,91.39
2022-09-27T08:55:35.864Z,90.57
2022-09-27T09:00:35.846Z,91.89
2022-09-27T09:05:35.741Z,91.79
2022-09-27T09:10:35.681Z,90.98
2022-09-27T09:15:35.614Z,91.89
2022-09-27T09:20:36.043Z,92.65
2022-09-27T09:25:35.494Z,92.35
2022-09-27T09:30:35.442Z,91.74
2022-09-27T09:35:35.405Z,91.28
2022-09-27T09:40:35.321Z,90.67
2022-09-27T09:45:35.311Z,90.42
2022-09-27T09:50:35.177Z,88.79
2022-09-27T09:55:35.124Z,87.67
2022-09-27T10:00:35.069Z,87.32
2022-09-27T10:05:34.998Z,87.32
2022-09-27T10:10:34.937Z,87.43
2022-09-27T10:15:34.878Z,87.84
2022-09-27T10:20:34.820Z,86.30
2022-09-27T10:25:34.738Z,87.18
2022-09-27T10:30:34.685Z,85.66
2022-09-27T10:35:34.622Z,86.47
2022-09-27T10:40:34.611Z,84.59
2022-09-27T10:45:34.583Z,82.76
2022-09-27T10:50:52.232Z,82.87
2022-09-27T10:55:35.409Z,82.70
2022-09-27T11:00:34.404Z,86.06
2022-09-27T11:05:34.246Z,87.69
2022-09-27T11:10:37.391Z,88.10
2022-09-27T11:15:34.191Z,84.70
2022-09-27T11:20:34.044Z,84.84
2022-09-27T11:25:33.993Z,89.77
2022-09-27T11:30:33.938Z,91.59
2022-09-27T11:35:33.866Z,93.37
2022-09-27T11:40:33.889Z,93.43
2022-09-27T11:50:34.678Z,91.50
2022-09-27T11:55:33.618Z,91.20
2022-09-27T12:00:33.569Z,90.99
2022-09-27T12:05:33.496Z,93.48
2022-09-27T12:10:33.427Z,95.01
2022-09-27T12:15:33.448Z,94.20
2022-09-27T12:20:33.308Z,93.52
2022-09-27T12:25:33.259Z,94.55
2022-09-27T12:30:34.016Z,95.31
2022-09-27T12:35:33.127Z,95.81
2022-09-27T12:40:33.169Z,96.27
2022-09-27T12:45:33.001Z,97.39
2022-09-27T12:50:32.942Z,96.68
2022-09-27T12:55:32.871Z,97.29
2022-09-27T13:00:32.813Z,99.18
2022-09-27T13:05:32.791Z,98.97
2022-09-27T13:10:32.684Z,99.33
2022-09-27T13:15:32.646Z,99.43
2022-09-27T13:20:32.565Z,99.95
2022-09-27T13:25:32.504Z,99.84
2022-09-27T13:30:32.475Z,99.89
2022-09-27T13:35:32.375Z,99.99
2022-09-27T13:40:32.366Z,99.99
2022-09-27T13:45:32.291Z,99.99
2022-09-27T13:50:32.195Z,99.99
2022-09-27T13:55:32.136Z,98.52
2022-09-27T14:00:32.086Z,97.55
2022-09-27T14:05:32.016Z,97.04
2022-09-27T14:10:31.965Z,97.80
2022-09-27T14:15:31.900Z,95.45
2022-09-27T14:20:31.900Z,94.64
2022-09-27T14:25:32.256Z,93.52
2022-09-27T14:30:31.738Z,91.28
2022-09-27T14:35:31.639Z,88.18
2022-09-27T14:40:31.671Z,88.49
2022-09-27T14:45:31.604Z,86.96
2022-09-27T14:50:31.479Z,88.84
2022-09-27T14:55:31.722Z,89.75
2022-09-27T15:00:36.454Z,91.59
2022-09-27T15:05:31.261Z,93.63
2022-09-27T15:10:31.191Z,94.65
2022-09-27T15:15:31.141Z,92.45
2022-09-27T15:20:34.597Z,91.74
2022-09-27T15:25:31.047Z,93.51
2022-09-27T15:30:36.273Z,93.00
2022-09-27T15:35:30.896Z,94.33
2022-09-27T15:40:30.876Z,95.35
2022-09-27T15:45:30.810Z,96.72
2022-09-27T15:50:30.748Z,97.74
2022-09-27T15:55:30.663Z,97.54
2022-09-27T16:00:30.630Z,97.54
2022-09-27T16:05:30.515Z,96.42
2022-09-27T16:10:30.456Z,96.42
2022-09-27T16:15:30.406Z,96.31
2022-09-27T16:20:30.719Z,95.90
2022-09-27T16:25:30.961Z,96.26
2022-09-27T16:30:30.209Z,95.75
2022-09-27T16:35:30.167Z,95.23
2022-09-27T16:40:30.171Z,94.56
2022-09-27T16:45:30.018Z,94.56
2022-09-27T16:50:29.951Z,94.56
2022-09-27T16:55:29.956Z,93.74
2022-09-27T17:00:29.882Z,95.02
2022-09-27T17:05:29.807Z,95.94
2022-09-27T17:10:29.720Z,94.60
2022-09-27T17:15:29.645Z,94.92
2022-09-27T17:20:29.582Z,94.40
2022-09-27T17:25:29.585Z,94.24
2022-09-27T17:30:29.813Z,94.55
2022-09-27T17:35:29.582Z,94.55
2022-09-27T17:40:29.388Z,95.17
2022-09-27T17:45:29.290Z,96.03
2022-09-27T17:50:29.253Z,95.92
2022-09-27T17:55:29.154Z,96.03
2022-09-27T18:00:29.072Z,96.54
2022-09-27T18:05:29.036Z,96.84
2022-09-27T18:10:28.954Z,96.95
2022-09-27T18:15:28.881Z,97.05
2022-09-27T18:20:28.824Z,96.79
2022-09-27T18:25:28.751Z,97.09
2022-09-27T18:30:28.709Z,97.20
2022-09-27T18:35:28.647Z,97.20
2022-09-27T18:40:54.713Z,97.45
2022-09-27T18:45:29.505Z,97.75
2022-09-27T18:50:28.456Z,98.32
2022-09-27T18:55:28.419Z,99.34
2022-09-27T19:00:28.374Z,99.99
2022-09-27T19:05:28.258Z,99.99
2022-09-27T19:10:28.228Z,99.99
2022-09-27T19:15:28.139Z,99.99
2022-09-27T19:20:28.076Z,99.99
2022-09-27T19:25:28.022Z,99.99
2022-09-27T19:30:27.940Z,99.99
2022-09-27T19:35:27.894Z,99.99
2022-09-27T19:40:28.007Z,99.99
2022-09-27T19:45:27.797Z,99.99
2022-09-27T19:50:27.691Z,99.69
2022-09-27T19:55:27.609Z,99.79
2022-09-27T20:00:27.550Z,99.79
2022-09-27T20:05:27.485Z,99.79
2022-09-27T20:10:27.431Z,99.69
2022-09-27T20:15:27.391Z,99.59
2022-09-27T20:20:27.312Z,99.13
2022-09-27T20:25:27.249Z,99.34
2022-09-27T20:30:27.159Z,99.18
2022-09-27T20:35:27.484Z,99.28
2022-09-27T20:40:27.062Z,99.54
2022-09-27T20:45:26.964Z,99.85
2022-09-27T20:50:26.911Z,99.99
2022-09-27T20:55:26.854Z,99.99
2022-09-27T21:00:41.154Z,99.99
2022-09-27T21:05:26.714Z,99.99
2022-09-27T21:10:26.654Z,99.99
2022-09-27T21:15:26.885Z,99.99
2022-09-27T21:20:26.521Z,99.99
2022-09-27T21:25:26.476Z,99.99
2022-09-27T21:30:26.397Z,99.99
2022-09-27T21:35:26.328Z,99.99
2022-09-27T21:40:26.285Z,99.99
2022-09-27T21:45:26.206Z,99.75
2022-09-27T21:50:26.136Z,99.44
2022-09-27T21:55:26.067Z,99.34
2022-09-27T22:00:26.035Z,99.34
2022-09-27T22:05:25.967Z,98.93
2022-09-27T22:10:25.917Z,98.93
2022-09-27T22:15:25.816Z,98.32
2022-09-27T22:20:25.806Z,98.32
2022-09-27T22:25:25.677Z,98.32
2022-09-27T22:30:25.711Z,97.60
2022-09-27T22:35:25.559Z,96.47
2022-09-27T22:40:25.618Z,96.37
2022-09-27T22:45:25.426Z,96.37
2022-09-27T22:50:25.380Z,95.24
2022-09-27T22:55:25.342Z,95.49
2022-09-27T23:00:25.357Z,95.59
2022-09-27T23:05:25.151Z,96.00
2022-09-27T23:10:25.140Z,96.41
2022-09-27T23:15:25.039Z,96.77
2022-09-27T23:20:24.997Z,97.42
2022-09-27T23:25:25.239Z,98.04
2022-09-27T23:30:24.831Z,98.55
2022-09-27T23:35:24.770Z,98.91
2022-09-27T23:40:24.799Z,99.21
2022-09-27T23:45:25.013Z,99.42
2022-09-27T23:50:24.554Z,99.67
2022-09-27T23:55:24.485Z,99.67
